Allendale, SC

8:55 AM EST on March 03, 2015 (GMT -0500)
Joe Miley Road | Change Station
CLOSE
Current Station
Personal Weather Station
Location: Brunson, SC
Elevation: 130 ft
Nearby Weather Stations

Elev 130 ft 32.94 °N, 81.13 °W | Updated 9 minutes ago

Fog
Fog
55.0 °F
Feels Like 55.0 °F
N
0.0
Wind Variable Wind from South

Today
High -- | Low -- °F
--% Chance of Precip.
Yesterday
High -- | Low -- °F
Precip. -- in
6:51 AM 6:23 PM
Waxing Gibbous, 96% visible
Pressure 30.26 in
Visibility 2.5 miles
Clouds Overcast 100 ft
Dew Point 54 °F
Humidity 98%
Rainfall 0.05 in
Snow Depth Not available.
UV 1 out of 12
Pollen 1.90 out of 12
Air Quality Not available.
Flu Activity Not available.
METAR KJYL 031335Z AUTO 11005KT 2 1/2SM BR OVC001 14/14 A3026 RMK AO2 T01350135

More Conditions Fewer Conditions

Pressure 30.26 in
Visibility 2.5 miles
Clouds Overcast 100 ft
Dew Point 54 °F
Humidity 98%
Rainfall 0.05 in
Snow Depth Not available.
UV 1 out of 12
Pollen 1.90 out of 12
Air Quality Not available.
Flu Activity Not available.
METAR KJYL 031335Z AUTO 11005KT 2 1/2SM BR OVC001 14/14 A3026 RMK AO2 T01350135

More Conditions Fewer Conditions

10-Day Weather Forecast

Almanac

Astronomy

Mar. 03, 2015 Rise Set
Actual Time
Civil Twilight
Nautical Twilight
Astronomical Twilight
Moon
Length of Visible Light
Length of Day
Tomorrow will be .
, % of the Moon is Illuminated

Today's Extremes

State Highs State Lows

Community

WunderPhotos

Upload Photos

1,802,102 photos uploaded!

WunderBlogs® & News

Nearby

Air Quality

  Air Quality AQ Index Pollutant
Not available.

Snow Depth

Station Depth Elevation

Earthquake Activity

City Distance Mag. Time & Date
Minimum magnitude displayed is 2.5.

Coastal Water Temperatures

Place Temperature

Nearby Weather Stations